sensor_id;sensor_type;location;lat;lon;timestamp;P1;durP1;ratioP1;P2;durP2;ratioP2
69750;SDS011;57335;52.288;6.056;2023-01-08T00:00:07;5.40;;;2.05;;
69750;SDS011;57335;52.288;6.056;2023-01-08T00:02:34;8.63;;;2.38;;
69750;SDS011;57335;52.288;6.056;2023-01-08T00:05:00;6.45;;;2.50;;
69750;SDS011;57335;52.288;6.056;2023-01-08T00:07:27;6.55;;;2.40;;
69750;SDS011;57335;52.288;6.056;2023-01-08T00:09:53;5.70;;;2.28;;
69750;SDS011;57335;52.288;6.056;2023-01-08T00:12:19;7.35;;;2.38;;
69750;SDS011;57335;52.288;6.056;2023-01-08T00:14:46;6.45;;;2.38;;
69750;SDS011;57335;52.288;6.056;2023-01-08T00:17:12;8.75;;;2.60;;
69750;SDS011;57335;52.288;6.056;2023-01-08T00:19:38;6.68;;;2.90;;
69750;SDS011;57335;52.288;6.056;2023-01-08T00:22:05;7.00;;;2.67;;
69750;SDS011;57335;52.288;6.056;2023-01-08T00:24:31;5.68;;;2.38;;
69750;SDS011;57335;52.288;6.056;2023-01-08T00:26:57;7.93;;;2.60;;
69750;SDS011;57335;52.288;6.056;2023-01-08T00:29:24;7.18;;;2.55;;
69750;SDS011;57335;52.288;6.056;2023-01-08T00:31:50;7.68;;;2.67;;
69750;SDS011;57335;52.288;6.056;2023-01-08T00:34:17;6.38;;;2.30;;
69750;SDS011;57335;52.288;6.056;2023-01-08T00:36:43;5.75;;;2.17;;
69750;SDS011;57335;52.288;6.056;2023-01-08T00:39:09;6.07;;;2.50;;
69750;SDS011;57335;52.288;6.056;2023-01-08T00:41:36;7.85;;;2.55;;
69750;SDS011;57335;52.288;6.056;2023-01-08T00:44:02;7.05;;;3.08;;
69750;SDS011;57335;52.288;6.056;2023-01-08T00:46:29;7.15;;;2.40;;
69750;SDS011;57335;52.288;6.056;2023-01-08T00:48:55;5.07;;;2.13;;
69750;SDS011;57335;52.288;6.056;2023-01-08T00:51:21;7.22;;;2.60;;
69750;SDS011;57335;52.288;6.056;2023-01-08T00:53:48;6.35;;;2.63;;
69750;SDS011;57335;52.288;6.056;2023-01-08T00:56:14;5.88;;;2.47;;
69750;SDS011;57335;52.288;6.056;2023-01-08T00:58:40;6.43;;;2.47;;
69750;SDS011;57335;52.288;6.056;2023-01-08T01:01:07;7.97;;;2.80;;
69750;SDS011;57335;52.288;6.056;2023-01-08T01:03:36;5.38;;;1.88;;
69750;SDS011;57335;52.288;6.056;2023-01-08T01:06:02;4.35;;;1.50;;
69750;SDS011;57335;52.288;6.056;2023-01-08T01:08:30;4.90;;;1.70;;
69750;SDS011;57335;52.288;6.056;2023-01-08T01:10:56;7.05;;;1.95;;
69750;SDS011;57335;52.288;6.056;2023-01-08T01:13:23;4.78;;;1.80;;
69750;SDS011;57335;52.288;6.056;2023-01-08T01:15:56;5.05;;;1.30;;
69750;SDS011;57335;52.288;6.056;2023-01-08T01:18:23;4.95;;;1.38;;
69750;SDS011;57335;52.288;6.056;2023-01-08T01:20:50;3.75;;;1.50;;
69750;SDS011;57335;52.288;6.056;2023-01-08T01:23:16;5.80;;;1.98;;
69750;SDS011;57335;52.288;6.056;2023-01-08T01:25:43;5.38;;;2.25;;
69750;SDS011;57335;52.288;6.056;2023-01-08T01:28:11;7.72;;;2.53;;
69750;SDS011;57335;52.288;6.056;2023-01-08T01:30:37;7.47;;;3.00;;
69750;SDS011;57335;52.288;6.056;2023-01-08T01:33:04;6.45;;;2.35;;
69750;SDS011;57335;52.288;6.056;2023-01-08T01:35:30;11.07;;;3.05;;
69750;SDS011;57335;52.288;6.056;2023-01-08T01:37:56;6.72;;;2.60;;
69750;SDS011;57335;52.288;6.056;2023-01-08T01:40:23;9.48;;;2.58;;
69750;SDS011;57335;52.288;6.056;2023-01-08T01:42:49;7.72;;;2.88;;
69750;SDS011;57335;52.288;6.056;2023-01-08T01:53:11;5.72;;;2.13;;
69750;SDS011;57335;52.288;6.056;2023-01-08T01:55:43;7.80;;;2.55;;
69750;SDS011;57335;52.288;6.056;2023-01-08T01:58:14;7.45;;;2.30;;
69750;SDS011;57335;52.288;6.056;2023-01-08T02:03:10;7.47;;;2.40;;
69750;SDS011;57335;52.288;6.056;2023-01-08T02:05:45;9.98;;;2.63;;
69750;SDS011;57335;52.288;6.056;2023-01-08T02:14:31;7.75;;;2.55;;
69750;SDS011;57335;52.288;6.056;2023-01-08T02:17:08;9.35;;;2.53;;
69750;SDS011;57335;52.288;6.056;2023-01-08T02:19:48;6.88;;;2.30;;
69750;SDS011;57335;52.288;6.056;2023-01-08T02:27:31;5.65;;;1.92;;
69750;SDS011;57335;52.288;6.056;2023-01-08T02:30:00;7.07;;;2.17;;
69750;SDS011;57335;52.288;6.056;2023-01-08T02:32:33;5.38;;;1.80;;
69750;SDS011;57335;52.288;6.056;2023-01-08T02:35:04;4.63;;;1.65;;
69750;SDS011;57335;52.288;6.056;2023-01-08T02:37:31;3.63;;;1.30;;
69750;SDS011;57335;52.288;6.056;2023-01-08T02:45:16;4.60;;;1.55;;
69750;SDS011;57335;52.288;6.056;2023-01-08T02:48:13;5.78;;;1.40;;
69750;SDS011;57335;52.288;6.056;2023-01-08T02:50:42;5.72;;;1.48;;
69750;SDS011;57335;52.288;6.056;2023-01-08T02:53:22;3.80;;;1.30;;
69750;SDS011;57335;52.288;6.056;2023-01-08T02:56:27;5.97;;;1.40;;
69750;SDS011;57335;52.288;6.056;2023-01-08T02:58:49;5.28;;;1.45;;
69750;SDS011;57335;52.288;6.056;2023-01-08T03:01:19;3.33;;;1.17;;
69750;SDS011;57335;52.288;6.056;2023-01-08T03:03:52;4.53;;;1.52;;
69750;SDS011;57335;52.288;6.056;2023-01-08T03:06:23;5.28;;;1.42;;
69750;SDS011;57335;52.288;6.056;2023-01-08T03:08:51;5.55;;;1.50;;
69750;SDS011;57335;52.288;6.056;2023-01-08T03:11:20;4.10;;;1.40;;
69750;SDS011;57335;52.288;6.056;2023-01-08T03:13:55;3.35;;;1.35;;
69750;SDS011;57335;52.288;6.056;2023-01-08T03:16:29;4.18;;;1.50;;
69750;SDS011;57335;52.288;6.056;2023-01-08T03:19:15;4.03;;;1.48;;
69750;SDS011;57335;52.288;6.056;2023-01-08T03:21:49;4.78;;;1.42;;
69750;SDS011;57335;52.288;6.056;2023-01-08T03:24:27;5.90;;;1.85;;
69750;SDS011;57335;52.288;6.056;2023-01-08T03:26:59;5.72;;;1.75;;
69750;SDS011;57335;52.288;6.056;2023-01-08T03:29:29;4.85;;;1.80;;
69750;SDS011;57335;52.288;6.056;2023-01-08T03:31:57;5.85;;;1.98;;
69750;SDS011;57335;52.288;6.056;2023-01-08T03:34:28;7.45;;;2.30;;
69750;SDS011;57335;52.288;6.056;2023-01-08T03:36:58;6.50;;;2.00;;
69750;SDS011;57335;52.288;6.056;2023-01-08T03:39:45;6.50;;;2.13;;
69750;SDS011;57335;52.288;6.056;2023-01-08T03:42:17;7.30;;;2.35;;
69750;SDS011;57335;52.288;6.056;2023-01-08T03:44:45;5.75;;;2.25;;
69750;SDS011;57335;52.288;6.056;2023-01-08T03:47:12;9.23;;;2.22;;
69750;SDS011;57335;52.288;6.056;2023-01-08T03:49:40;8.10;;;2.50;;
69750;SDS011;57335;52.288;6.056;2023-01-08T03:52:19;6.80;;;2.30;;
69750;SDS011;57335;52.288;6.056;2023-01-08T03:54:46;8.50;;;2.70;;
69750;SDS011;57335;52.288;6.056;2023-01-08T03:57:12;6.25;;;2.38;;
69750;SDS011;57335;52.288;6.056;2023-01-08T03:59:39;5.78;;;2.05;;
69750;SDS011;57335;52.288;6.056;2023-01-08T04:02:05;7.35;;;2.80;;
69750;SDS011;57335;52.288;6.056;2023-01-08T04:04:32;8.40;;;2.50;;
69750;SDS011;57335;52.288;6.056;2023-01-08T04:06:58;6.75;;;2.20;;
69750;SDS011;57335;52.288;6.056;2023-01-08T04:09:25;7.22;;;2.10;;
69750;SDS011;57335;52.288;6.056;2023-01-08T04:11:51;5.82;;;2.17;;
69750;SDS011;57335;52.288;6.056;2023-01-08T04:14:17;8.95;;;2.28;;
69750;SDS011;57335;52.288;6.056;2023-01-08T04:16:44;6.45;;;1.95;;
69750;SDS011;57335;52.288;6.056;2023-01-08T04:19:11;6.47;;;1.83;;
69750;SDS011;57335;52.288;6.056;2023-01-08T04:21:37;6.43;;;2.03;;
69750;SDS011;57335;52.288;6.056;2023-01-08T04:24:04;7.80;;;2.20;;
69750;SDS011;57335;52.288;6.056;2023-01-08T04:26:31;7.57;;;1.63;;
69750;SDS011;57335;52.288;6.056;2023-01-08T04:28:58;5.57;;;1.70;;
69750;SDS011;57335;52.288;6.056;2023-01-08T04:31:24;5.93;;;1.48;;
69750;SDS011;57335;52.288;6.056;2023-01-08T04:33:50;4.38;;;1.25;;
69750;SDS011;57335;52.288;6.056;2023-01-08T04:36:17;5.28;;;1.55;;
69750;SDS011;57335;52.288;6.056;2023-01-08T04:38:43;4.78;;;1.75;;
69750;SDS011;57335;52.288;6.056;2023-01-08T04:41:09;9.02;;;1.35;;
69750;SDS011;57335;52.288;6.056;2023-01-08T04:43:36;7.10;;;1.27;;
69750;SDS011;57335;52.288;6.056;2023-01-08T04:46:04;2.85;;;1.10;;
69750;SDS011;57335;52.288;6.056;2023-01-08T04:48:31;4.78;;;1.00;;
69750;SDS011;57335;52.288;6.056;2023-01-08T04:50:57;5.15;;;1.10;;
69750;SDS011;57335;52.288;6.056;2023-01-08T04:53:24;4.22;;;1.13;;
69750;SDS011;57335;52.288;6.056;2023-01-08T04:55:51;5.15;;;0.93;;
69750;SDS011;57335;52.288;6.056;2023-01-08T04:58:18;8.00;;;1.08;;
69750;SDS011;57335;52.288;6.056;2023-01-08T05:00:44;2.97;;;0.90;;
69750;SDS011;57335;52.288;6.056;2023-01-08T05:03:11;6.03;;;1.20;;
69750;SDS011;57335;52.288;6.056;2023-01-08T05:05:37;5.15;;;0.98;;
69750;SDS011;57335;52.288;6.056;2023-01-08T05:08:04;5.28;;;1.10;;
69750;SDS011;57335;52.288;6.056;2023-01-08T05:10:30;4.30;;;1.25;;
69750;SDS011;57335;52.288;6.056;2023-01-08T05:12:57;4.03;;;0.75;;
69750;SDS011;57335;52.288;6.056;2023-01-08T05:15:24;7.10;;;1.20;;
69750;SDS011;57335;52.288;6.056;2023-01-08T05:18:02;6.15;;;1.10;;
69750;SDS011;57335;52.288;6.056;2023-01-08T05:20:33;5.50;;;1.00;;
69750;SDS011;57335;52.288;6.056;2023-01-08T05:23:00;5.95;;;1.33;;
69750;SDS011;57335;52.288;6.056;2023-01-08T05:25:27;9.52;;;1.35;;
69750;SDS011;57335;52.288;6.056;2023-01-08T05:27:53;8.30;;;1.20;;
69750;SDS011;57335;52.288;6.056;2023-01-08T05:30:19;3.65;;;1.08;;
69750;SDS011;57335;52.288;6.056;2023-01-08T05:32:46;3.50;;;0.80;;
69750;SDS011;57335;52.288;6.056;2023-01-08T05:35:12;4.03;;;1.00;;
69750;SDS011;57335;52.288;6.056;2023-01-08T05:37:38;2.78;;;0.75;;
69750;SDS011;57335;52.288;6.056;2023-01-08T05:40:05;5.05;;;0.85;;
69750;SDS011;57335;52.288;6.056;2023-01-08T05:42:32;6.25;;;1.20;;
69750;SDS011;57335;52.288;6.056;2023-01-08T05:45:00;5.80;;;1.30;;
69750;SDS011;57335;52.288;6.056;2023-01-08T05:47:30;3.90;;;1.00;;
69750;SDS011;57335;52.288;6.056;2023-01-08T05:49:57;6.10;;;1.13;;
69750;SDS011;57335;52.288;6.056;2023-01-08T05:52:24;5.15;;;1.23;;
69750;SDS011;57335;52.288;6.056;2023-01-08T05:54:50;5.88;;;1.13;;
69750;SDS011;57335;52.288;6.056;2023-01-08T05:57:16;3.63;;;0.93;;
69750;SDS011;57335;52.288;6.056;2023-01-08T05:59:43;5.00;;;1.20;;
69750;SDS011;57335;52.288;6.056;2023-01-08T06:02:09;6.53;;;1.10;;
69750;SDS011;57335;52.288;6.056;2023-01-08T06:04:36;5.53;;;1.83;;
69750;SDS011;57335;52.288;6.056;2023-01-08T06:07:02;3.13;;;1.02;;
69750;SDS011;57335;52.288;6.056;2023-01-08T06:09:28;5.15;;;1.02;;
69750;SDS011;57335;52.288;6.056;2023-01-08T06:11:55;4.57;;;0.88;;
69750;SDS011;57335;52.288;6.056;2023-01-08T06:14:21;4.30;;;1.10;;
69750;SDS011;57335;52.288;6.056;2023-01-08T06:16:48;5.30;;;1.30;;
69750;SDS011;57335;52.288;6.056;2023-01-08T06:19:14;5.05;;;1.23;;
69750;SDS011;57335;52.288;6.056;2023-01-08T06:21:40;3.72;;;1.05;;
69750;SDS011;57335;52.288;6.056;2023-01-08T06:24:07;7.47;;;1.20;;
69750;SDS011;57335;52.288;6.056;2023-01-08T06:26:33;3.80;;;1.00;;
69750;SDS011;57335;52.288;6.056;2023-01-08T06:28:59;6.78;;;1.05;;
69750;SDS011;57335;52.288;6.056;2023-01-08T06:31:26;6.63;;;1.10;;
69750;SDS011;57335;52.288;6.056;2023-01-08T06:33:52;4.07;;;0.85;;
69750;SDS011;57335;52.288;6.056;2023-01-08T06:36:19;5.38;;;1.13;;
69750;SDS011;57335;52.288;6.056;2023-01-08T06:38:45;6.32;;;1.10;;
69750;SDS011;57335;52.288;6.056;2023-01-08T06:41:11;3.83;;;1.10;;
69750;SDS011;57335;52.288;6.056;2023-01-08T06:43:38;6.38;;;1.13;;
69750;SDS011;57335;52.288;6.056;2023-01-08T06:46:05;4.30;;;1.17;;
69750;SDS011;57335;52.288;6.056;2023-01-08T06:48:32;7.75;;;1.23;;
69750;SDS011;57335;52.288;6.056;2023-01-08T06:51:00;4.80;;;1.10;;
69750;SDS011;57335;52.288;6.056;2023-01-08T06:53:27;5.05;;;1.13;;
69750;SDS011;57335;52.288;6.056;2023-01-08T06:55:53;2.97;;;1.10;;
69750;SDS011;57335;52.288;6.056;2023-01-08T06:58:19;3.38;;;0.73;;
69750;SDS011;57335;52.288;6.056;2023-01-08T07:00:46;7.20;;;1.20;;
69750;SDS011;57335;52.288;6.056;2023-01-08T07:03:12;4.18;;;0.82;;
69750;SDS011;57335;52.288;6.056;2023-01-08T07:05:39;2.75;;;0.95;;
69750;SDS011;57335;52.288;6.056;2023-01-08T07:08:05;3.60;;;0.80;;
69750;SDS011;57335;52.288;6.056;2023-01-08T07:10:35;4.28;;;1.00;;
69750;SDS011;57335;52.288;6.056;2023-01-08T07:13:01;5.30;;;1.30;;
69750;SDS011;57335;52.288;6.056;2023-01-08T07:15:27;2.05;;;0.77;;
69750;SDS011;57335;52.288;6.056;2023-01-08T07:17:54;3.75;;;1.13;;
69750;SDS011;57335;52.288;6.056;2023-01-08T07:20:20;5.50;;;1.33;;
69750;SDS011;57335;52.288;6.056;2023-01-08T07:22:47;5.28;;;1.27;;
69750;SDS011;57335;52.288;6.056;2023-01-08T07:25:13;3.60;;;1.02;;
69750;SDS011;57335;52.288;6.056;2023-01-08T07:27:40;2.65;;;1.00;;
69750;SDS011;57335;52.288;6.056;2023-01-08T07:30:06;3.60;;;1.08;;
69750;SDS011;57335;52.288;6.056;2023-01-08T07:32:43;7.00;;;1.25;;
69750;SDS011;57335;52.288;6.056;2023-01-08T07:35:09;4.40;;;1.20;;
69750;SDS011;57335;52.288;6.056;2023-01-08T07:37:39;5.85;;;1.13;;
69750;SDS011;57335;52.288;6.056;2023-01-08T07:40:06;3.35;;;1.08;;
69750;SDS011;57335;52.288;6.056;2023-01-08T07:42:34;4.53;;;1.23;;
69750;SDS011;57335;52.288;6.056;2023-01-08T07:45:01;7.72;;;1.50;;
69750;SDS011;57335;52.288;6.056;2023-01-08T07:47:27;5.88;;;1.30;;
69750;SDS011;57335;52.288;6.056;2023-01-08T07:49:54;5.88;;;1.40;;
69750;SDS011;57335;52.288;6.056;2023-01-08T07:52:20;6.50;;;1.52;;
69750;SDS011;57335;52.288;6.056;2023-01-08T07:54:47;6.40;;;1.20;;
69750;SDS011;57335;52.288;6.056;2023-01-08T07:57:13;4.00;;;1.15;;
69750;SDS011;57335;52.288;6.056;2023-01-08T07:59:39;3.42;;;1.00;;
69750;SDS011;57335;52.288;6.056;2023-01-08T08:02:06;3.80;;;1.13;;
69750;SDS011;57335;52.288;6.056;2023-01-08T08:04:33;5.07;;;1.20;;
69750;SDS011;57335;52.288;6.056;2023-01-08T08:06:59;5.63;;;1.30;;
69750;SDS011;57335;52.288;6.056;2023-01-08T08:09:25;3.78;;;0.90;;
69750;SDS011;57335;52.288;6.056;2023-01-08T08:11:52;4.40;;;0.90;;
69750;SDS011;57335;52.288;6.056;2023-01-08T08:14:18;5.55;;;1.20;;
69750;SDS011;57335;52.288;6.056;2023-01-08T08:16:44;4.68;;;1.00;;
69750;SDS011;57335;52.288;6.056;2023-01-08T08:19:11;3.63;;;1.10;;
69750;SDS011;57335;52.288;6.056;2023-01-08T08:21:37;8.45;;;1.65;;
69750;SDS011;57335;52.288;6.056;2023-01-08T08:27:35;5.18;;;0.95;;
69750;SDS011;57335;52.288;6.056;2023-01-08T08:30:02;7.68;;;1.10;;
69750;SDS011;57335;52.288;6.056;2023-01-08T08:32:29;7.70;;;1.17;;
69750;SDS011;57335;52.288;6.056;2023-01-08T08:34:55;3.90;;;0.70;;
69750;SDS011;57335;52.288;6.056;2023-01-08T08:37:22;5.05;;;1.15;;
69750;SDS011;57335;52.288;6.056;2023-01-08T08:39:48;6.22;;;1.17;;
69750;SDS011;57335;52.288;6.056;2023-01-08T08:42:14;4.80;;;1.10;;
69750;SDS011;57335;52.288;6.056;2023-01-08T08:44:41;5.25;;;1.05;;
69750;SDS011;57335;52.288;6.056;2023-01-08T08:47:08;5.78;;;0.95;;
69750;SDS011;57335;52.288;6.056;2023-01-08T08:49:34;5.78;;;1.02;;
69750;SDS011;57335;52.288;6.056;2023-01-08T08:52:02;6.32;;;1.00;;
69750;SDS011;57335;52.288;6.056;2023-01-08T08:54:29;6.68;;;1.20;;
69750;SDS011;57335;52.288;6.056;2023-01-08T08:56:56;8.40;;;1.52;;
69750;SDS011;57335;52.288;6.056;2023-01-08T08:59:22;8.10;;;1.35;;
69750;SDS011;57335;52.288;6.056;2023-01-08T09:01:48;6.63;;;1.00;;
69750;SDS011;57335;52.288;6.056;2023-01-08T09:04:15;3.03;;;1.00;;
69750;SDS011;57335;52.288;6.056;2023-01-08T09:06:41;5.20;;;0.93;;
69750;SDS011;57335;52.288;6.056;2023-01-08T09:09:08;6.50;;;0.90;;
69750;SDS011;57335;52.288;6.056;2023-01-08T09:11:34;5.90;;;1.20;;
69750;SDS011;57335;52.288;6.056;2023-01-08T09:14:00;5.63;;;0.80;;
69750;SDS011;57335;52.288;6.056;2023-01-08T09:16:27;8.07;;;1.20;;
69750;SDS011;57335;52.288;6.056;2023-01-08T09:18:53;8.43;;;1.25;;
69750;SDS011;57335;52.288;6.056;2023-01-08T09:21:21;8.07;;;1.55;;
69750;SDS011;57335;52.288;6.056;2023-01-08T09:23:47;7.03;;;1.17;;
69750;SDS011;57335;52.288;6.056;2023-01-08T09:26:13;4.47;;;1.02;;
69750;SDS011;57335;52.288;6.056;2023-01-08T09:28:40;8.40;;;1.45;;
69750;SDS011;57335;52.288;6.056;2023-01-08T09:31:07;5.45;;;1.48;;
69750;SDS011;57335;52.288;6.056;2023-01-08T09:33:33;7.68;;;1.45;;
69750;SDS011;57335;52.288;6.056;2023-01-08T09:35:59;8.82;;;1.55;;
69750;SDS011;57335;52.288;6.056;2023-01-08T09:38:26;5.13;;;1.05;;
69750;SDS011;57335;52.288;6.056;2023-01-08T09:41:29;5.78;;;0.90;;
69750;SDS011;57335;52.288;6.056;2023-01-08T09:43:52;7.45;;;1.27;;
69750;SDS011;57335;52.288;6.056;2023-01-08T09:46:20;6.88;;;1.33;;
69750;SDS011;57335;52.288;6.056;2023-01-08T09:48:50;7.50;;;1.00;;
69750;SDS011;57335;52.288;6.056;2023-01-08T09:51:17;10.98;;;1.30;;
69750;SDS011;57335;52.288;6.056;2023-01-08T09:53:47;8.45;;;1.08;;
69750;SDS011;57335;52.288;6.056;2023-01-08T09:56:18;8.43;;;1.00;;
69750;SDS011;57335;52.288;6.056;2023-01-08T09:58:45;5.68;;;0.90;;
69750;SDS011;57335;52.288;6.056;2023-01-08T10:01:16;6.75;;;1.40;;
69750;SDS011;57335;52.288;6.056;2023-01-08T10:03:46;5.75;;;1.23;;
69750;SDS011;57335;52.288;6.056;2023-01-08T10:06:17;7.03;;;1.10;;
69750;SDS011;57335;52.288;6.056;2023-01-08T10:08:44;6.45;;;1.20;;
69750;SDS011;57335;52.288;6.056;2023-01-08T10:11:16;6.05;;;1.40;;
69750;SDS011;57335;52.288;6.056;2023-01-08T10:13:51;4.85;;;1.10;;
69750;SDS011;57335;52.288;6.056;2023-01-08T10:16:39;7.28;;;1.00;;
69750;SDS011;57335;52.288;6.056;2023-01-08T10:19:07;5.65;;;0.80;;
69750;SDS011;57335;52.288;6.056;2023-01-08T10:21:38;6.38;;;0.95;;
69750;SDS011;57335;52.288;6.056;2023-01-08T10:24:06;8.35;;;1.40;;
69750;SDS011;57335;52.288;6.056;2023-01-08T10:26:34;6.40;;;1.83;;
69750;SDS011;57335;52.288;6.056;2023-01-08T10:29:20;5.07;;;1.02;;
69750;SDS011;57335;52.288;6.056;2023-01-08T10:31:51;5.68;;;1.15;;
69750;SDS011;57335;52.288;6.056;2023-01-08T10:37:28;7.50;;;1.40;;
69750;SDS011;57335;52.288;6.056;2023-01-08T10:39:55;7.47;;;1.50;;
69750;SDS011;57335;52.288;6.056;2023-01-08T10:42:28;8.30;;;1.67;;
69750;SDS011;57335;52.288;6.056;2023-01-08T10:45:01;4.18;;;1.13;;
69750;SDS011;57335;52.288;6.056;2023-01-08T10:47:33;10.20;;;1.50;;
69750;SDS011;57335;52.288;6.056;2023-01-08T10:50:01;7.15;;;1.60;;
69750;SDS011;57335;52.288;6.056;2023-01-08T10:52:31;7.05;;;1.52;;
69750;SDS011;57335;52.288;6.056;2023-01-08T10:57:53;5.38;;;1.30;;
69750;SDS011;57335;52.288;6.056;2023-01-08T11:00:25;7.30;;;2.22;;
69750;SDS011;57335;52.288;6.056;2023-01-08T11:03:03;7.68;;;1.52;;
69750;SDS011;57335;52.288;6.056;2023-01-08T11:05:35;7.97;;;1.50;;
69750;SDS011;57335;52.288;6.056;2023-01-08T11:08:07;6.60;;;1.27;;
69750;SDS011;57335;52.288;6.056;2023-01-08T11:10:41;7.10;;;1.40;;
69750;SDS011;57335;52.288;6.056;2023-01-08T11:13:13;5.90;;;1.25;;
69750;SDS011;57335;52.288;6.056;2023-01-08T11:15:44;11.43;;;1.45;;
69750;SDS011;57335;52.288;6.056;2023-01-08T11:20:56;4.60;;;1.23;;
69750;SDS011;57335;52.288;6.056;2023-01-08T11:23:32;7.95;;;1.00;;
69750;SDS011;57335;52.288;6.056;2023-01-08T11:26:02;7.55;;;1.20;;
69750;SDS011;57335;52.288;6.056;2023-01-08T11:31:20;9.48;;;1.33;;
69750;SDS011;57335;52.288;6.056;2023-01-08T11:33:55;4.72;;;1.10;;
69750;SDS011;57335;52.288;6.056;2023-01-08T11:36:32;5.68;;;0.98;;
69750;SDS011;57335;52.288;6.056;2023-01-08T11:39:07;2.60;;;0.68;;
69750;SDS011;57335;52.288;6.056;2023-01-08T11:44:20;3.75;;;1.05;;
69750;SDS011;57335;52.288;6.056;2023-01-08T11:47:01;5.60;;;1.00;;
69750;SDS011;57335;52.288;6.056;2023-01-08T11:55:30;4.50;;;0.90;;
69750;SDS011;57335;52.288;6.056;2023-01-08T11:58:17;4.13;;;1.08;;
69750;SDS011;57335;52.288;6.056;2023-01-08T12:11:21;3.95;;;0.90;;
69750;SDS011;57335;52.288;6.056;2023-01-08T12:14:05;2.72;;;1.10;;
69750;SDS011;57335;52.288;6.056;2023-01-08T12:22:43;1.80;;;0.70;;
69750;SDS011;57335;52.288;6.056;2023-01-08T12:33:39;2.47;;;0.90;;
69750;SDS011;57335;52.288;6.056;2023-01-08T12:36:32;2.70;;;0.60;;
69750;SDS011;57335;52.288;6.056;2023-01-08T12:39:05;2.78;;;0.90;;
69750;SDS011;57335;52.288;6.056;2023-01-08T12:41:37;1.95;;;0.70;;
69750;SDS011;57335;52.288;6.056;2023-01-08T12:44:08;2.78;;;0.70;;
69750;SDS011;57335;52.288;6.056;2023-01-08T12:46:36;1.73;;;0.55;;
69750;SDS011;57335;52.288;6.056;2023-01-08T12:49:07;2.08;;;0.57;;
69750;SDS011;57335;52.288;6.056;2023-01-08T12:57:14;4.72;;;0.90;;
69750;SDS011;57335;52.288;6.056;2023-01-08T13:02:35;2.30;;;0.45;;
69750;SDS011;57335;52.288;6.056;2023-01-08T13:07:47;1.90;;;0.77;;
69750;SDS011;57335;52.288;6.056;2023-01-08T13:12:48;2.47;;;0.70;;
69750;SDS011;57335;52.288;6.056;2023-01-08T13:15:23;0.75;;;0.38;;
69750;SDS011;57335;52.288;6.056;2023-01-08T13:17:55;3.08;;;0.80;;
69750;SDS011;57335;52.288;6.056;2023-01-08T13:20:24;2.55;;;0.80;;
69750;SDS011;57335;52.288;6.056;2023-01-08T13:22:52;4.25;;;0.75;;
69750;SDS011;57335;52.288;6.056;2023-01-08T13:27:50;1.38;;;0.60;;
69750;SDS011;57335;52.288;6.056;2023-01-08T13:41:41;1.45;;;0.57;;
69750;SDS011;57335;52.288;6.056;2023-01-08T13:44:23;2.20;;;0.70;;
69750;SDS011;57335;52.288;6.056;2023-01-08T13:47:00;0.98;;;0.50;;
69750;SDS011;57335;52.288;6.056;2023-01-08T13:52:01;1.70;;;0.80;;
69750;SDS011;57335;52.288;6.056;2023-01-08T13:54:32;2.25;;;0.88;;
69750;SDS011;57335;52.288;6.056;2023-01-08T13:57:05;1.02;;;0.60;;
69750;SDS011;57335;52.288;6.056;2023-01-08T13:59:55;4.43;;;1.00;;
69750;SDS011;57335;52.288;6.056;2023-01-08T14:02:40;3.70;;;0.80;;
69750;SDS011;57335;52.288;6.056;2023-01-08T14:05:28;3.30;;;0.90;;
69750;SDS011;57335;52.288;6.056;2023-01-08T14:07:56;3.15;;;0.93;;
69750;SDS011;57335;52.288;6.056;2023-01-08T14:10:23;3.47;;;1.05;;
69750;SDS011;57335;52.288;6.056;2023-01-08T14:12:51;5.00;;;1.00;;
69750;SDS011;57335;52.288;6.056;2023-01-08T14:15:21;3.13;;;0.70;;
69750;SDS011;57335;52.288;6.056;2023-01-08T14:17:51;4.47;;;0.80;;
69750;SDS011;57335;52.288;6.056;2023-01-08T14:20:20;2.75;;;0.80;;
69750;SDS011;57335;52.288;6.056;2023-01-08T14:22:53;2.83;;;0.75;;
69750;SDS011;57335;52.288;6.056;2023-01-08T14:25:20;3.28;;;1.00;;
69750;SDS011;57335;52.288;6.056;2023-01-08T14:27:54;3.08;;;0.77;;
69750;SDS011;57335;52.288;6.056;2023-01-08T14:30:29;3.20;;;0.90;;
69750;SDS011;57335;52.288;6.056;2023-01-08T14:32:56;3.92;;;0.75;;
69750;SDS011;57335;52.288;6.056;2023-01-08T14:35:28;3.47;;;0.90;;
69750;SDS011;57335;52.288;6.056;2023-01-08T14:37:58;4.93;;;0.88;;
69750;SDS011;57335;52.288;6.056;2023-01-08T14:40:27;5.75;;;0.80;;
69750;SDS011;57335;52.288;6.056;2023-01-08T14:43:01;4.63;;;0.90;;
69750;SDS011;57335;52.288;6.056;2023-01-08T14:45:32;3.53;;;0.80;;
69750;SDS011;57335;52.288;6.056;2023-01-08T14:48:10;6.03;;;1.10;;
69750;SDS011;57335;52.288;6.056;2023-01-08T14:50:42;4.10;;;0.85;;
69750;SDS011;57335;52.288;6.056;2023-01-08T14:53:22;3.55;;;0.90;;
69750;SDS011;57335;52.288;6.056;2023-01-08T14:55:53;4.18;;;1.00;;
69750;SDS011;57335;52.288;6.056;2023-01-08T14:58:22;2.80;;;0.80;;
69750;SDS011;57335;52.288;6.056;2023-01-08T15:00:56;2.88;;;0.80;;
69750;SDS011;57335;52.288;6.056;2023-01-08T15:06:07;3.72;;;1.10;;
69750;SDS011;57335;52.288;6.056;2023-01-08T15:08:35;3.72;;;1.20;;
69750;SDS011;57335;52.288;6.056;2023-01-08T15:11:03;3.20;;;0.93;;
69750;SDS011;57335;52.288;6.056;2023-01-08T15:13:35;3.72;;;0.90;;
69750;SDS011;57335;52.288;6.056;2023-01-08T15:16:16;5.32;;;1.00;;
69750;SDS011;57335;52.288;6.056;2023-01-08T15:19:05;3.95;;;0.90;;
69750;SDS011;57335;52.288;6.056;2023-01-08T15:21:36;4.32;;;1.40;;
69750;SDS011;57335;52.288;6.056;2023-01-08T15:24:03;4.13;;;0.85;;
69750;SDS011;57335;52.288;6.056;2023-01-08T15:26:32;3.80;;;1.20;;
69750;SDS011;57335;52.288;6.056;2023-01-08T15:28:59;4.57;;;1.10;;
69750;SDS011;57335;52.288;6.056;2023-01-08T15:31:30;5.63;;;0.85;;
69750;SDS011;57335;52.288;6.056;2023-01-08T15:33:59;3.20;;;0.80;;
69750;SDS011;57335;52.288;6.056;2023-01-08T15:36:26;5.25;;;1.23;;
69750;SDS011;57335;52.288;6.056;2023-01-08T15:38:52;3.13;;;1.00;;
69750;SDS011;57335;52.288;6.056;2023-01-08T15:41:19;2.90;;;0.95;;
69750;SDS011;57335;52.288;6.056;2023-01-08T15:43:47;6.07;;;1.15;;
69750;SDS011;57335;52.288;6.056;2023-01-08T15:46:16;4.07;;;1.10;;
69750;SDS011;57335;52.288;6.056;2023-01-08T15:48:43;7.03;;;1.13;;
69750;SDS011;57335;52.288;6.056;2023-01-08T15:51:09;4.00;;;1.13;;
69750;SDS011;57335;52.288;6.056;2023-01-08T15:53:35;4.70;;;1.10;;
69750;SDS011;57335;52.288;6.056;2023-01-08T15:56:02;3.85;;;0.98;;
69750;SDS011;57335;52.288;6.056;2023-01-08T15:58:28;6.35;;;1.20;;
69750;SDS011;57335;52.288;6.056;2023-01-08T16:00:54;5.38;;;1.25;;
69750;SDS011;57335;52.288;6.056;2023-01-08T16:03:21;5.63;;;1.15;;
69750;SDS011;57335;52.288;6.056;2023-01-08T16:05:47;4.70;;;1.30;;
69750;SDS011;57335;52.288;6.056;2023-01-08T16:08:14;6.80;;;1.33;;
69750;SDS011;57335;52.288;6.056;2023-01-08T16:10:40;5.85;;;1.40;;
69750;SDS011;57335;52.288;6.056;2023-01-08T16:13:06;6.57;;;1.30;;
69750;SDS011;57335;52.288;6.056;2023-01-08T16:15:37;4.65;;;1.20;;
69750;SDS011;57335;52.288;6.056;2023-01-08T16:18:03;3.63;;;1.20;;
69750;SDS011;57335;52.288;6.056;2023-01-08T16:20:30;6.75;;;1.60;;
69750;SDS011;57335;52.288;6.056;2023-01-08T16:22:56;3.45;;;1.20;;
69750;SDS011;57335;52.288;6.056;2023-01-08T16:25:22;4.90;;;1.40;;
69750;SDS011;57335;52.288;6.056;2023-01-08T16:27:49;4.28;;;1.25;;
69750;SDS011;57335;52.288;6.056;2023-01-08T16:30:16;5.38;;;1.25;;
69750;SDS011;57335;52.288;6.056;2023-01-08T16:32:43;4.35;;;1.20;;
69750;SDS011;57335;52.288;6.056;2023-01-08T16:35:09;5.97;;;1.30;;
69750;SDS011;57335;52.288;6.056;2023-01-08T16:37:36;3.47;;;1.10;;
69750;SDS011;57335;52.288;6.056;2023-01-08T16:40:03;6.93;;;1.67;;
69750;SDS011;57335;52.288;6.056;2023-01-08T16:42:30;4.93;;;1.33;;
69750;SDS011;57335;52.288;6.056;2023-01-08T16:44:57;2.85;;;1.15;;
69750;SDS011;57335;52.288;6.056;2023-01-08T16:47:23;5.97;;;1.27;;